M I D A S
Marine Information and Data Acquisition System
Tripno 1078 of the Zeeleeuw from 2006-04-28 07:14:02 to 2006-04-28 11:53:19
Back to CruiseResearch ActivitiesStationsMapUnderway DataData graphs

EquipmentUnitsComments
TimeDGPSUTC
LatitudeDGPSDM.mWGS84
LongitudeDGPSDM.mWGS84
SpeedMeteo Stationm/sRelative wind speed
DirectionMeteo StationdegRelative wind direction
TemperatureMeteo Stationdeg CelciusAir temperature
PressureMeteo StationPaAtmospheric pressure
HumidityMeteo Station%Relative humidity
Missing or incorrect values are displayed as -999
Metereological data collected by the RV Zeeleeuw from 2006-04-28 07:14:48 to 2006-04-28 12:05:21
Time Latitude Longitude Speed Direction Temperature Pressure Humidity
2006-04-28 07:15 51°13.622 2°56.03 -999 212 7.9 102480 93
2006-04-28 07:16 51°13.644 2°55.926 -999 234 7.7 102490 93
2006-04-28 07:17 51°13.674 2°55.835 -999 211 7.5 102490 93
2006-04-28 07:18 51°13.709 2°55.752 -999 226 7.4 102490 94
2006-04-28 07:19 51°13.72 2°55.755 -999 303 7.2 102490 94
2006-04-28 07:20 51°13.71 2°55.741 -999 290 7.2 102480 95
2006-04-28 07:21 51°13.736 2°55.731 -999 26 7.2 102470 95
2006-04-28 07:22 51°13.841 2°55.63 -999 23 7.1 102470 96
2006-04-28 07:23 51°13.985 2°55.519 -999 22 7.1 102460 96
2006-04-28 07:24 51°14.129 2°55.417 -999 16 7.1 102480 96
2006-04-28 07:25 51°14.269 2°55.239 -999 37 7.1 102470 97
2006-04-28 07:26 51°14.374 2°54.995 -999 60 7 102480 97
2006-04-28 07:27 51°14.412 2°54.661 -999 51 6.8 102460 97
2006-04-28 07:28 51°14.378 2°54.317 -999 79 6.9 102470 98
2006-04-28 07:29 51°14.263 2°54.003 -999 67 6.9 102470 98
2006-04-28 07:30 51°14.163 2°53.677 -999 55 6.8 102460 98
2006-04-28 07:31 51°14.059 2°53.334 -999 58 6.7 102460 99
2006-04-28 07:32 51°13.951 2°52.993 -999 57 6.6 102460 99
2006-04-28 07:33 51°13.833 2°52.653 -999 63 6.6 102470 99
2006-04-28 07:34 51°13.69 2°52.345 -999 65 6.7 102470 99
2006-04-28 07:35 51°13.573 2°52.016 -999 40 6.7 102460 100
2006-04-28 07:36 51°13.451 2°51.651 -999 50 6.8 102460 100
2006-04-28 07:37 51°13.339 2°51.298 -999 52 6.7 102460 100
2006-04-28 07:38 51°13.22 2°50.951 -999 47 6.6 102450 100
2006-04-28 07:39 51°13.092 2°50.613 -999 41 6.5 102460 100
2006-04-28 07:40 51°12.974 2°50.266 -999 51 6.5 102460 100
2006-04-28 07:41 51°12.848 2°49.93 -999 60 6.4 102460 100
2006-04-28 07:42 51°12.724 2°49.592 -999 58 6.4 102460 100
2006-04-28 07:43 51°12.606 2°49.25 -999 54 6.5 102450 100
2006-04-28 07:44 51°12.486 2°48.9 -999 53 6.7 102450 100
2006-04-28 07:45 51°12.365 2°48.546 -999 43 6.6 102450 100
2006-04-28 07:46 51°12.245 2°48.197 -999 42 6.7 102450 100
2006-04-28 07:47 51°12.12 2°47.843 -999 41 6.6 102450 100
2006-04-28 07:48 51°12.001 2°47.495 -999 38 6.5 102450 100
2006-04-28 07:49 51°11.889 2°47.135 -999 47 6.5 102450 100
2006-04-28 07:50 51°11.778 2°46.771 -999 49 6.5 102450 100
2006-04-28 07:51 51°11.667 2°46.412 -999 44 6.5 102460 100
2006-04-28 07:52 51°11.555 2°46.05 -999 51 6.5 102460 100
2006-04-28 07:53 51°11.45 2°45.691 -999 43 6.4 102450 100
2006-04-28 07:54 51°11.367 2°45.317 -999 54 6.3 102460 100
2006-04-28 07:55 51°11.289 2°44.944 -999 64 6.4 102460 100
2006-04-28 07:56 51°11.205 2°44.57 -999 57 6.4 102460 100
2006-04-28 07:57 51°11.14 2°44.178 -999 47 6.4 102460 100
2006-04-28 07:58 51°11.072 2°43.791 -999 42 6.5 102450 100
2006-04-28 07:59 51°11.007 2°43.403 -999 40 6.4 102450 100
2006-04-28 08:00 51°10.943 2°43.016 -999 55 6.5 102450 100
2006-04-28 08:01 51°10.876 2°42.632 -999 52 6.4 102450 100
2006-04-28 08:02 51°10.808 2°42.248 -999 43 6.4 102440 100
2006-04-28 08:03 51°10.745 2°41.866 -999 43 6.4 102440 100
2006-04-28 08:04 51°10.684 2°41.484 -999 55 6.4 102440 100
2006-04-28 08:05 51°10.623 2°41.105 -999 45 6.4 102440 100
2006-04-28 08:06 51°10.56 2°40.728 -999 42 6.4 102440 100
2006-04-28 08:07 51°10.496 2°40.354 -999 39 6.4 102450 100
2006-04-28 08:08 51°10.437 2°39.973 -999 39 6.4 102440 100
2006-04-28 08:09 51°10.378 2°39.603 -999 49 6.4 102440 100
2006-04-28 08:10 51°10.318 2°39.218 -999 45 6.5 102440 100
2006-04-28 08:11 51°10.255 2°38.84 -999 52 6.5 102430 100
2006-04-28 08:12 51°10.194 2°38.461 -999 48 6.5 102440 100
2006-04-28 08:13 51°10.135 2°38.088 -999 45 6.6 102440 100
2006-04-28 08:14 51°10.074 2°37.706 -999 44 6.7 102440 100
2006-04-28 08:15 51°10.011 2°37.316 -999 41 6.7 102450 100
2006-04-28 08:16 51°9.956 2°36.941 -999 50 6.7 102460 100
2006-04-28 08:17 51°9.95 2°36.548 -999 43 6.7 102440 100
2006-04-28 08:18 51°9.969 2°36.169 -999 38 6.8 102450 100
2006-04-28 08:19 51°10.039 2°35.822 -999 30 6.8 102450 100
2006-04-28 08:20 51°10.208 2°35.635 -999 9 6.8 102450 100
2006-04-28 08:21 51°10.398 2°35.65 -999 358 6.9 102450 100
2006-04-28 08:22 51°10.571 2°35.81 -999 357 6.9 102450 100
2006-04-28 08:23 51°10.738 2°35.96 -999 352 6.9 102430 99
2006-04-28 08:24 51°10.908 2°36.123 -999 352 6.9 102430 99
2006-04-28 08:25 51°11.073 2°36.288 -999 353 7 102430 99
2006-04-28 08:26 51°11.241 2°36.444 -999 357 7 102440 99
2006-04-28 08:27 51°11.407 2°36.605 -999 354 7 102440 99
2006-04-28 08:28 51°11.57 2°36.768 -999 356 7 102440 99
2006-04-28 08:29 51°11.736 2°36.93 -999 351 7 102440 99
2006-04-28 08:30 51°11.906 2°37.077 -999 360 7 102440 98
2006-04-28 08:31 51°12.077 2°37.224 -999 359 7 102450 98
2006-04-28 08:32 51°12.246 2°37.376 -999 352 7 102440 98
2006-04-28 08:33 51°12.413 2°37.521 -999 3 6.9 102440 98
2006-04-28 08:34 51°12.584 2°37.669 -999 358 6.9 102440 97
2006-04-28 08:35 51°12.757 2°37.818 -999 358 6.9 102440 97
2006-04-28 08:36 51°12.928 2°37.965 -999 353 7 102450 97
2006-04-28 08:37 51°13.101 2°38.11 -999 356 7 102440 97
2006-04-28 08:38 51°13.262 2°38.287 -999 353 7 102450 97
2006-04-28 08:39 51°13.342 2°38.569 -999 343 7.1 102430 97
2006-04-28 08:40 51°13.47 2°38.788 -999 1 7.1 102440 97
2006-04-28 08:41 51°13.657 2°38.887 -999 7 7.2 102450 97
2006-04-28 08:42 51°13.859 2°38.871 -999 15 7.1 102450 96
2006-04-28 08:43 51°14.057 2°38.779 -999 16 7.1 102450 96
2006-04-28 08:44 51°14.222 2°38.568 -999 26 7 102450 96
2006-04-28 08:45 51°14.354 2°38.301 -999 38 7.1 102450 96
2006-04-28 08:46 51°14.332 2°37.928 -999 59 7 102450 96
2006-04-28 08:47 51°14.222 2°37.575 -999 46 6.9 102470 96
2006-04-28 08:48 51°14.075 2°37.25 -999 55 6.8 102460 96
2006-04-28 08:49 51°13.934 2°36.92 -999 51 6.8 102460 96
2006-04-28 08:50 51°13.796 2°36.588 -999 58 6.8 102460 96
2006-04-28 08:51 51°13.659 2°36.255 -999 57 6.8 102460 96
2006-04-28 08:52 51°13.522 2°35.927 -999 53 6.8 102460 96
2006-04-28 08:53 51°13.383 2°35.6 -999 55 6.8 102460 96
2006-04-28 08:54 51°13.243 2°35.273 -999 53 6.8 102460 96
2006-04-28 08:55 51°13.102 2°34.949 -999 49 6.9 102460 97
2006-04-28 08:56 51°12.973 2°34.61 -999 42 6.9 102460 97
2006-04-28 08:57 51°12.851 2°34.266 -999 54 6.9 102460 97
2006-04-28 08:58 51°12.739 2°33.915 -999 45 7 102460 97
2006-04-28 08:59 51°12.632 2°33.562 -999 52 6.9 102460 96
2006-04-28 09:00 51°12.527 2°33.212 -999 44 6.9 102460 96
2006-04-28 09:01 51°12.421 2°32.867 -999 50 6.9 102460 96
2006-04-28 09:02 51°12.315 2°32.522 -999 46 6.9 102460 96
2006-04-28 09:03 51°12.204 2°32.178 -999 53 6.9 102460 96
2006-04-28 09:04 51°12.098 2°31.831 -999 48 6.9 102460 96
2006-04-28 09:05 51°12.012 2°31.468 -999 45 6.9 102450 96
2006-04-28 09:06 51°11.921 2°31.107 -999 42 6.9 102460 96
2006-04-28 09:07 51°11.831 2°30.739 -999 45 6.9 102460 96
2006-04-28 09:08 51°11.739 2°30.372 -999 44 7 102460 96
2006-04-28 09:09 51°11.652 2°30.004 -999 47 7 102460 96
2006-04-28 09:10 51°11.574 2°29.628 -999 47 7 102460 96
2006-04-28 09:11 51°11.496 2°29.251 -999 41 7.1 102460 96
2006-04-28 09:12 51°11.417 2°28.875 -999 43 7.1 102460 96
2006-04-28 09:13 51°11.34 2°28.499 -999 37 7.1 102460 97
2006-04-28 09:14 51°11.265 2°28.12 -999 44 7.2 102460 97
2006-04-28 09:15 51°11.219 2°27.744 -999 44 7.2 102460 96
2006-04-28 09:16 51°11.209 2°27.352 -999 41 7.1 102460 96
2006-04-28 09:17 51°11.199 2°26.978 -999 47 7.2 102450 96
2006-04-28 09:18 51°11.194 2°26.6 -999 41 7.2 102450 96
2006-04-28 09:19 51°11.241 2°26.243 -999 38 7.3 102450 96
2006-04-28 09:20 51°11.33 2°25.924 -999 36 7.3 102460 96
2006-04-28 09:21 51°11.466 2°25.66 -999 21 7.4 102450 96
2006-04-28 09:22 51°11.661 2°25.587 -999 5 7.5 102460 96
2006-04-28 09:23 51°11.857 2°25.656 -999 358 7.6 102450 96
2006-04-28 09:24 51°12.034 2°25.795 -999 352 7.7 102440 96
2006-04-28 09:25 51°12.206 2°25.951 -999 353 7.8 102440 96
2006-04-28 09:26 51°12.368 2°26.123 -999 352 7.9 102440 95
2006-04-28 09:27 51°12.533 2°26.291 -999 353 7.9 102440 95
2006-04-28 09:28 51°12.701 2°26.455 -999 351 8 102440 94
2006-04-28 09:29 51°12.867 2°26.621 -999 353 8 102440 94
2006-04-28 09:30 51°13.027 2°26.8 -999 351 8.1 102440 94
2006-04-28 09:31 51°13.182 2°26.984 -999 355 8.1 102440 93
2006-04-28 09:32 51°13.335 2°27.171 -999 350 8.1 102430 93
2006-04-28 09:33 51°13.48 2°27.375 -999 351 8.1 102440 93
2006-04-28 09:34 51°13.433 2°27.613 -999 328 8.2 102450 92
2006-04-28 09:35 51°13.236 2°27.468 -999 41 8.2 102470 91
2006-04-28 09:36 51°13.184 2°27.243 -999 59 8 102460 91
2006-04-28 09:37 51°13.182 2°27.127 -999 57 8 102460 93
2006-04-28 09:38 51°13.169 2°27.073 -999 61 8 102460 93
2006-04-28 09:39 51°13.152 2°27.029 -999 54 7.9 102460 93
2006-04-28 09:40 51°13.134 2°26.99 -999 55 7.9 102460 94
2006-04-28 09:41 51°13.117 2°26.955 -999 47 7.8 102460 94
2006-04-28 09:42 51°13.096 2°26.921 -999 40 7.8 102460 94
2006-04-28 09:43 51°13.077 2°26.89 -999 49 7.8 102460 94
2006-04-28 09:44 51°13.057 2°26.86 -999 46 7.8 102460 94
2006-04-28 09:45 51°13.036 2°26.831 -999 41 7.9 102450 95
2006-04-28 09:46 51°13.014 2°26.804 -999 49 7.8 102450 94
2006-04-28 09:47 51°12.992 2°26.777 -999 76 7.9 102450 95
2006-04-28 09:48 51°12.97 2°26.75 -999 79 7.9 102450 94
2006-04-28 09:49 51°12.948 2°26.723 -999 67 7.9 102450 95
2006-04-28 09:50 51°12.926 2°26.696 -999 66 7.9 102450 95
2006-04-28 09:51 51°12.904 2°26.67 -999 64 7.9 102450 95
2006-04-28 09:52 51°12.882 2°26.645 -999 68 7.9 102450 94
2006-04-28 09:53 51°12.86 2°26.621 -999 72 7.9 102450 94
2006-04-28 09:54 51°12.839 2°26.598 -999 79 7.9 102440 94
2006-04-28 09:55 51°12.816 2°26.574 -999 83 8 102440 94
2006-04-28 09:56 51°12.794 2°26.551 -999 91 8.2 102450 94
2006-04-28 09:57 51°12.772 2°26.528 -999 86 8.1 102440 94
2006-04-28 09:58 51°12.752 2°26.505 -999 84 8.1 102440 94
2006-04-28 09:59 51°12.733 2°26.48 -999 69 8.2 102440 94
2006-04-28 10:00 51°12.768 2°26.393 -999 14 8.2 102440 94
2006-04-28 10:01 51°12.907 2°26.437 -999 353 8.3 102430 94
2006-04-28 10:02 51°13.065 2°26.617 -999 350 8.4 102420 93
2006-04-28 10:03 51°13.221 2°26.813 -999 351 8.5 102420 92
2006-04-28 10:04 51°13.376 2°27.015 -999 352 8.6 102410 91
2006-04-28 10:05 51°13.533 2°27.213 -999 350 8.7 102420 91
2006-04-28 10:06 51°13.688 2°27.412 -999 349 8.7 102410 90
2006-04-28 10:07 51°13.843 2°27.611 -999 353 8.8 102410 90
2006-04-28 10:08 51°13.999 2°27.81 -999 348 8.8 102420 90
2006-04-28 10:09 51°14.158 2°28.011 -999 347 8.8 102410 89
2006-04-28 10:10 51°14.311 2°28.209 -999 351 8.8 102410 89
2006-04-28 10:11 51°14.469 2°28.414 -999 352 8.9 102410 89
2006-04-28 10:12 51°14.622 2°28.614 -999 351 8.8 102410 88
2006-04-28 10:13 51°14.78 2°28.813 -999 346 8.9 102410 88
2006-04-28 10:14 51°14.936 2°29.014 -999 351 8.9 102410 88
2006-04-28 10:15 51°15.093 2°29.229 -999 353 8.9 102410 88
2006-04-28 10:16 51°15.25 2°29.441 -999 346 8.9 102410 88
2006-04-28 10:17 51°15.406 2°29.657 -999 348 8.9 102400 88
2006-04-28 10:18 51°15.564 2°29.875 -999 348 8.8 102400 87
2006-04-28 10:19 51°15.724 2°30.09 -999 352 8.9 102400 87
2006-04-28 10:20 51°15.882 2°30.308 -999 347 8.9 102400 88
2006-04-28 10:21 51°16.04 2°30.524 -999 344 8.8 102400 87
2006-04-28 10:22 51°16.199 2°30.74 -999 350 8.9 102400 87
2006-04-28 10:23 51°16.358 2°30.952 -999 348 8.9 102400 87
2006-04-28 10:24 51°16.517 2°31.166 -999 347 8.9 102400 87
2006-04-28 10:25 51°16.676 2°31.383 -999 344 8.9 102400 87
2006-04-28 10:26 51°16.828 2°31.597 -999 343 8.9 102390 87
2006-04-28 10:27 51°16.983 2°31.814 -999 344 8.9 102390 87
2006-04-28 10:28 51°17.141 2°32.042 -999 347 8.9 102390 87
2006-04-28 10:29 51°17.294 2°32.268 -999 344 8.9 102390 87
2006-04-28 10:30 51°17.453 2°32.501 -999 343 8.9 102390 87
2006-04-28 10:31 51°17.606 2°32.731 -999 345 8.9 102380 86
2006-04-28 10:32 51°17.765 2°32.965 -999 347 8.9 102380 86
2006-04-28 10:33 51°17.924 2°33.201 -999 342 8.9 102380 85
2006-04-28 10:34 51°18.082 2°33.441 -999 344 8.9 102390 85
2006-04-28 10:35 51°18.241 2°33.681 -999 341 8.9 102370 85
2006-04-28 10:36 51°18.398 2°33.925 -999 345 8.9 102390 85
2006-04-28 10:37 51°18.546 2°34.184 -999 337 8.9 102390 85
2006-04-28 10:38 51°18.692 2°34.438 -999 336 8.9 102390 85
2006-04-28 10:39 51°18.842 2°34.703 -999 338 8.8 102380 84
2006-04-28 10:40 51°18.986 2°34.966 -999 337 8.9 102390 85
2006-04-28 10:41 51°19.135 2°35.231 -999 341 8.8 102390 84
2006-04-28 10:42 51°19.28 2°35.488 -999 340 8.9 102380 85
2006-04-28 10:43 51°19.424 2°35.746 -999 336 8.8 102380 85
2006-04-28 10:44 51°19.572 2°36.009 -999 337 8.8 102380 85
2006-04-28 10:45 51°19.716 2°36.267 -999 336 8.8 102380 84
2006-04-28 10:46 51°19.861 2°36.519 -999 337 8.8 102370 84
2006-04-28 10:47 51°20.011 2°36.764 -999 340 8.8 102380 84
2006-04-28 10:48 51°20.16 2°37.009 -999 343 8.8 102370 84
2006-04-28 10:49 51°20.283 2°37.284 -999 321 8.8 102380 84
2006-04-28 10:50 51°20.373 2°37.598 -999 325 8.8 102390 84
2006-04-28 10:51 51°20.442 2°37.927 -999 318 8.8 102390 84
2006-04-28 10:52 51°20.478 2°38.275 -999 228 8.7 102390 84
2006-04-28 10:53 51°20.491 2°38.632 -999 311 8.7 102410 85
2006-04-28 10:54 51°20.49 2°38.995 -999 315 8.8 102410 85
2006-04-28 10:55 51°20.488 2°39.358 -999 40 8.7 102410 85
2006-04-28 10:56 51°20.488 2°39.723 -999 314 8.7 102410 85
2006-04-28 10:57 51°20.49 2°40.088 -999 319 8.7 102410 85
2006-04-28 10:58 51°20.493 2°40.452 -999 42 8.7 102400 86
2006-04-28 10:59 51°20.499 2°40.818 -999 39 8.7 102400 86
2006-04-28 11:00 51°20.507 2°41.186 -999 315 8.7 102390 86
2006-04-28 11:01 51°20.515 2°41.56 -999 302 8.7 102400 86
2006-04-28 11:02 51°20.51 2°41.939 -999 41 8.7 102400 86
2006-04-28 11:03 51°20.508 2°42.319 -999 40 8.6 102370 86
2006-04-28 11:04 51°20.505 2°42.699 -999 312 8.6 102370 86
2006-04-28 11:05 51°20.505 2°43.077 -999 315 8.6 102380 87
2006-04-28 11:06 51°20.506 2°43.454 -999 42 8.6 102380 87
2006-04-28 11:07 51°20.508 2°43.825 -999 304 8.6 102370 87
2006-04-28 11:08 51°20.511 2°44.198 -999 315 8.6 102360 87
2006-04-28 11:09 51°20.515 2°44.573 -999 313 8.6 102370 87
2006-04-28 11:10 51°20.511 2°44.952 -999 311 8.6 102370 88
2006-04-28 11:11 51°20.506 2°45.327 -999 301 8.6 102370 88
2006-04-28 11:12 51°20.504 2°45.704 -999 309 8.6 102360 88
2006-04-28 11:13 51°20.504 2°46.084 -999 306 8.6 102360 88
2006-04-28 11:14 51°20.489 2°46.463 -999 306 8.6 102370 88
2006-04-28 11:15 51°20.469 2°46.844 -999 308 8.6 102370 88
2006-04-28 11:16 51°20.449 2°47.226 -999 312 8.6 102370 88
2006-04-28 11:17 51°20.424 2°47.607 -999 296 8.6 102360 88
2006-04-28 11:18 51°20.345 2°47.96 -999 282 8.6 102370 88
2006-04-28 11:19 51°20.215 2°48.26 -999 269 8.6 102390 88
2006-04-28 11:20 51°20.077 2°48.54 -999 271 8.6 102400 88
2006-04-28 11:21 51°19.94 2°48.821 -999 274 8.8 102390 89
2006-04-28 11:22 51°19.798 2°49.102 -999 276 8.6 102390 88
2006-04-28 11:23 51°19.66 2°49.39 -999 278 8.6 102400 89
2006-04-28 11:24 51°19.504 2°49.653 -999 257 8.6 102400 89
2006-04-28 11:25 51°19.328 2°49.878 -999 250 8.6 102400 89
2006-04-28 11:26 51°19.15 2°50.092 -999 240 8.4 102400 88
2006-04-28 11:27 51°18.961 2°50.295 -999 241 8.4 102400 88
2006-04-28 11:28 51°18.782 2°50.507 -999 247 8.4 102400 88
2006-04-28 11:29 51°18.605 2°50.717 -999 241 8.4 102400 88
2006-04-28 11:30 51°18.426 2°50.928 -999 238 8.4 102400 88
2006-04-28 11:31 51°18.244 2°51.145 -999 249 8.4 102400 88
2006-04-28 11:32 51°18.062 2°51.357 -999 238 8.4 102400 89
2006-04-28 11:33 51°17.892 2°51.581 -999 243 8.4 102400 89
2006-04-28 11:34 51°17.707 2°51.789 -999 252 8.4 102390 89
2006-04-28 11:35 51°17.522 2°51.978 -999 251 8.4 102390 90
2006-04-28 11:36 51°17.333 2°52.153 -999 225 8.4 102390 90
2006-04-28 11:37 51°17.141 2°52.314 -999 238 8.4 102390 91
2006-04-28 11:38 51°16.951 2°52.484 -999 237 8.3 102390 90
2006-04-28 11:39 51°16.764 2°52.643 -999 239 8.4 102390 90
2006-04-28 11:40 51°16.569 2°52.815 -999 241 8.3 102390 90
2006-04-28 11:41 51°16.377 2°52.98 -999 223 8.3 102390 90
2006-04-28 11:42 51°16.18 2°53.136 -999 234 8.3 102390 90
2006-04-28 11:43 51°15.985 2°53.298 -999 230 8.3 102390 90
2006-04-28 11:44 51°15.792 2°53.46 -999 249 8.3 102390 91
2006-04-28 11:45 51°15.603 2°53.626 -999 254 8.3 102390 90
2006-04-28 11:46 51°15.414 2°53.788 -999 243 8.3 102390 90
2006-04-28 11:47 51°15.227 2°53.96 -999 231 8.3 102390 90
2006-04-28 11:48 51°15.044 2°54.142 -999 246 8.3 102390 90
2006-04-28 11:49 51°14.86 2°54.324 -999 248 8.3 102390 89
2006-04-28 11:50 51°14.698 2°54.546 -999 262 8.3 102390 89
2006-04-28 11:51 51°14.542 2°54.781 -999 276 8.3 102390 89
2006-04-28 11:52 51°14.391 2°55.034 -999 272 8.4 102390 90
2006-04-28 11:53 51°14.265 2°55.258 -999 260 8.4 102390 90
2006-04-28 11:54 51°14.16 2°55.385 -999 237 8.4 102390 90
2006-04-28 11:55 51°14.06 2°55.457 -999 225 8.4 102400 90
2006-04-28 11:56 51°13.961 2°55.53 -999 229 8.4 102390 91
2006-04-28 11:57 51°13.858 2°55.606 -999 214 8.4 102400 90
2006-04-28 11:58 51°13.765 2°55.692 -999 226 8.4 102390 90
2006-04-28 11:59 51°13.698 2°55.8 -999 250 8.4 102400 90
2006-04-28 12:00 51°13.65 2°55.911 -999 260 8.4 102390 89
2006-04-28 12:01 51°13.619 2°56.002 -999 256 8.4 102390 89
2006-04-28 12:02 51°13.609 2°56.069 -999 253 8.4 102380 89
2006-04-28 12:03 51°13.605 2°56.093 -999 260 8.6 102390 89
2006-04-28 12:04 51°13.602 2°56.097 -999 232 8.6 102390 87